sensor_id;sensor_type;location;lat;lon;timestamp;temperature;humidity
68128;SHT30;54931;52.098;21.006;2024-02-16T00:03:04;7.76;72.59
68128;SHT30;54931;52.098;21.006;2024-02-16T00:05:53;7.75;72.49
68128;SHT30;54931;52.098;21.006;2024-02-16T00:08:41;7.75;72.43
68128;SHT30;54931;52.098;21.006;2024-02-16T00:11:28;7.76;72.41
68128;SHT30;54931;52.098;21.006;2024-02-16T00:14:16;7.76;72.42
68128;SHT30;54931;52.098;21.006;2024-02-16T00:17:03;7.75;72.30
68128;SHT30;54931;52.098;21.006;2024-02-16T00:19:52;7.75;72.25
68128;SHT30;54931;52.098;21.006;2024-02-16T00:22:40;7.75;72.23
68128;SHT30;54931;52.098;21.006;2024-02-16T00:25:28;7.74;72.16
68128;SHT30;54931;52.098;21.006;2024-02-16T00:28:16;7.74;72.07
68128;SHT30;54931;52.098;21.006;2024-02-16T00:31:03;7.74;71.83
68128;SHT30;54931;52.098;21.006;2024-02-16T00:33:52;7.76;71.86
68128;SHT30;54931;52.098;21.006;2024-02-16T00:36:40;7.76;71.83
68128;SHT30;54931;52.098;21.006;2024-02-16T00:39:27;7.75;71.60
68128;SHT30;54931;52.098;21.006;2024-02-16T00:42:15;7.77;71.47
68128;SHT30;54931;52.098;21.006;2024-02-16T00:45:02;7.76;71.59
68128;SHT30;54931;52.098;21.006;2024-02-16T00:47:52;7.75;71.68
68128;SHT30;54931;52.098;21.006;2024-02-16T00:50:40;7.74;71.64
68128;SHT30;54931;52.098;21.006;2024-02-16T00:53:29;7.73;71.55
68128;SHT30;54931;52.098;21.006;2024-02-16T00:56:16;7.71;71.39
68128;SHT30;54931;52.098;21.006;2024-02-16T00:59:04;7.70;71.27
68128;SHT30;54931;52.098;21.006;2024-02-16T01:01:51;7.67;71.34
68128;SHT30;54931;52.098;21.006;2024-02-16T01:04:39;7.64;71.44
68128;SHT30;54931;52.098;21.006;2024-02-16T01:07:26;7.59;71.42
68128;SHT30;54931;52.098;21.006;2024-02-16T01:10:13;7.54;71.57
68128;SHT30;54931;52.098;21.006;2024-02-16T01:13:01;7.48;71.62
68128;SHT30;54931;52.098;21.006;2024-02-16T01:15:50;7.44;71.82
68128;SHT30;54931;52.098;21.006;2024-02-16T01:18:39;7.36;71.97
68128;SHT30;54931;52.098;21.006;2024-02-16T01:21:27;7.31;72.06
68128;SHT30;54931;52.098;21.006;2024-02-16T01:24:14;7.26;71.98
68128;SHT30;54931;52.098;21.006;2024-02-16T01:27:02;7.21;71.68
68128;SHT30;54931;52.098;21.006;2024-02-16T01:29:49;7.17;71.68
68128;SHT30;54931;52.098;21.006;2024-02-16T01:32:37;7.12;71.56
68128;SHT30;54931;52.098;21.006;2024-02-16T01:35:24;7.09;71.50
68128;SHT30;54931;52.098;21.006;2024-02-16T01:38:12;7.05;71.53
68128;SHT30;54931;52.098;21.006;2024-02-16T01:40:59;6.99;71.54
68128;SHT30;54931;52.098;21.006;2024-02-16T01:43:46;6.95;71.60
68128;SHT30;54931;52.098;21.006;2024-02-16T01:46:33;6.91;71.75
68128;SHT30;54931;52.098;21.006;2024-02-16T01:49:22;6.85;72.05
68128;SHT30;54931;52.098;21.006;2024-02-16T01:52:10;6.78;72.34
68128;SHT30;54931;52.098;21.006;2024-02-16T01:54:58;6.72;72.48
68128;SHT30;54931;52.098;21.006;2024-02-16T01:57:46;6.66;72.72
68128;SHT30;54931;52.098;21.006;2024-02-16T02:00:34;6.66;72.72
68128;SHT30;54931;52.098;21.006;2024-02-16T02:03:21;6.64;72.48
68128;SHT30;54931;52.098;21.006;2024-02-16T02:06:09;6.63;72.33
68128;SHT30;54931;52.098;21.006;2024-02-16T02:08:57;6.61;72.33
68128;SHT30;54931;52.098;21.006;2024-02-16T02:11:44;6.54;72.46
68128;SHT30;54931;52.098;21.006;2024-02-16T02:14:31;6.50;72.54
68128;SHT30;54931;52.098;21.006;2024-02-16T02:17:19;6.45;72.64
68128;SHT30;54931;52.098;21.006;2024-02-16T02:20:06;6.40;72.74
68128;SHT30;54931;52.098;21.006;2024-02-16T02:22:57;6.36;72.90
68128;SHT30;54931;52.098;21.006;2024-02-16T02:25:44;6.30;73.02
68128;SHT30;54931;52.098;21.006;2024-02-16T02:28:32;6.26;73.12
68128;SHT30;54931;52.098;21.006;2024-02-16T02:31:21;6.23;73.17
68128;SHT30;54931;52.098;21.006;2024-02-16T02:34:08;6.18;73.27
68128;SHT30;54931;52.098;21.006;2024-02-16T02:36:57;6.13;73.35
68128;SHT30;54931;52.098;21.006;2024-02-16T02:39:44;6.10;73.42
68128;SHT30;54931;52.098;21.006;2024-02-16T02:42:32;6.06;73.45
68128;SHT30;54931;52.098;21.006;2024-02-16T02:45:19;6.05;73.47
68128;SHT30;54931;52.098;21.006;2024-02-16T02:48:07;6.02;73.45
68128;SHT30;54931;52.098;21.006;2024-02-16T02:50:54;5.97;73.54
68128;SHT30;54931;52.098;21.006;2024-02-16T02:53:41;5.92;73.63
68128;SHT30;54931;52.098;21.006;2024-02-16T02:56:30;5.89;73.70
68128;SHT30;54931;52.098;21.006;2024-02-16T02:59:18;5.84;73.80
68128;SHT30;54931;52.098;21.006;2024-02-16T03:02:06;5.80;73.80
68128;SHT30;54931;52.098;21.006;2024-02-16T03:04:53;5.77;73.81
68128;SHT30;54931;52.098;21.006;2024-02-16T03:07:40;5.75;73.81
68128;SHT30;54931;52.098;21.006;2024-02-16T03:10:28;5.72;73.81
68128;SHT30;54931;52.098;21.006;2024-02-16T03:13:21;5.69;73.87
68128;SHT30;54931;52.098;21.006;2024-02-16T03:16:08;5.63;73.86
68128;SHT30;54931;52.098;21.006;2024-02-16T03:18:56;5.59;73.92
68128;SHT30;54931;52.098;21.006;2024-02-16T03:21:43;5.55;73.97
68128;SHT30;54931;52.098;21.006;2024-02-16T03:24:30;5.48;74.01
68128;SHT30;54931;52.098;21.006;2024-02-16T03:27:17;5.43;74.09
68128;SHT30;54931;52.098;21.006;2024-02-16T03:30:05;5.39;74.11
68128;SHT30;54931;52.098;21.006;2024-02-16T03:32:53;5.36;74.20
68128;SHT30;54931;52.098;21.006;2024-02-16T03:35:41;5.33;74.18
68128;SHT30;54931;52.098;21.006;2024-02-16T03:38:28;5.32;74.12
68128;SHT30;54931;52.098;21.006;2024-02-16T03:41:20;5.31;74.09
68128;SHT30;54931;52.098;21.006;2024-02-16T03:44:09;5.30;74.04
68128;SHT30;54931;52.098;21.006;2024-02-16T03:46:57;5.30;74.00
68128;SHT30;54931;52.098;21.006;2024-02-16T03:49:44;5.30;73.96
68128;SHT30;54931;52.098;21.006;2024-02-16T03:52:31;5.28;73.91
68128;SHT30;54931;52.098;21.006;2024-02-16T03:55:19;5.26;73.90
68128;SHT30;54931;52.098;21.006;2024-02-16T03:58:06;5.24;73.90
68128;SHT30;54931;52.098;21.006;2024-02-16T04:00:54;5.24;73.91
68128;SHT30;54931;52.098;21.006;2024-02-16T04:03:41;5.22;73.88
68128;SHT30;54931;52.098;21.006;2024-02-16T04:06:28;5.18;73.92
68128;SHT30;54931;52.098;21.006;2024-02-16T04:09:16;5.16;73.96
68128;SHT30;54931;52.098;21.006;2024-02-16T04:12:03;5.14;73.99
68128;SHT30;54931;52.098;21.006;2024-02-16T04:14:52;5.09;74.03
68128;SHT30;54931;52.098;21.006;2024-02-16T04:17:39;5.05;74.14
68128;SHT30;54931;52.098;21.006;2024-02-16T04:20:26;5.01;74.18
68128;SHT30;54931;52.098;21.006;2024-02-16T04:23:13;4.98;74.27
68128;SHT30;54931;52.098;21.006;2024-02-16T04:26:01;4.98;74.23
68128;SHT30;54931;52.098;21.006;2024-02-16T04:28:48;4.97;74.21
68128;SHT30;54931;52.098;21.006;2024-02-16T04:31:36;4.96;74.21
68128;SHT30;54931;52.098;21.006;2024-02-16T04:34:27;4.93;74.30
68128;SHT30;54931;52.098;21.006;2024-02-16T04:37:14;4.92;74.29
68128;SHT30;54931;52.098;21.006;2024-02-16T04:40:02;4.89;74.37
68128;SHT30;54931;52.098;21.006;2024-02-16T04:42:51;4.87;74.46
68128;SHT30;54931;52.098;21.006;2024-02-16T04:45:38;4.83;74.51
68128;SHT30;54931;52.098;21.006;2024-02-16T04:48:25;4.82;74.53
68128;SHT30;54931;52.098;21.006;2024-02-16T04:51:13;4.79;74.63
68128;SHT30;54931;52.098;21.006;2024-02-16T04:54:01;4.77;74.70
68128;SHT30;54931;52.098;21.006;2024-02-16T04:56:50;4.75;74.75
68128;SHT30;54931;52.098;21.006;2024-02-16T04:59:38;4.71;74.83
68128;SHT30;54931;52.098;21.006;2024-02-16T05:02:25;4.67;75.00
68128;SHT30;54931;52.098;21.006;2024-02-16T05:05:12;4.62;75.05
68128;SHT30;54931;52.098;21.006;2024-02-16T05:08:00;4.58;75.16
68128;SHT30;54931;52.098;21.006;2024-02-16T05:10:48;4.52;75.32
68128;SHT30;54931;52.098;21.006;2024-02-16T05:13:35;4.49;75.40
68128;SHT30;54931;52.098;21.006;2024-02-16T05:16:24;4.45;75.48
68128;SHT30;54931;52.098;21.006;2024-02-16T05:19:12;4.41;75.72
68128;SHT30;54931;52.098;21.006;2024-02-16T05:22:00;4.38;75.84
68128;SHT30;54931;52.098;21.006;2024-02-16T05:24:47;4.36;75.96
68128;SHT30;54931;52.098;21.006;2024-02-16T05:27:35;4.32;75.99
68128;SHT30;54931;52.098;21.006;2024-02-16T05:30:22;4.29;76.19
68128;SHT30;54931;52.098;21.006;2024-02-16T05:33:11;4.31;76.24
68128;SHT30;54931;52.098;21.006;2024-02-16T05:35:59;4.31;76.19
68128;SHT30;54931;52.098;21.006;2024-02-16T05:38:46;4.30;76.19
68128;SHT30;54931;52.098;21.006;2024-02-16T05:41:34;4.26;76.32
68128;SHT30;54931;52.098;21.006;2024-02-16T05:44:23;4.26;76.35
68128;SHT30;54931;52.098;21.006;2024-02-16T05:47:10;4.24;76.34
68128;SHT30;54931;52.098;21.006;2024-02-16T05:49:58;4.22;76.46
68128;SHT30;54931;52.098;21.006;2024-02-16T05:52:46;4.22;76.48
68128;SHT30;54931;52.098;21.006;2024-02-16T05:55:33;4.23;76.43
68128;SHT30;54931;52.098;21.006;2024-02-16T05:58:21;4.22;76.49
68128;SHT30;54931;52.098;21.006;2024-02-16T06:01:09;4.22;76.52
68128;SHT30;54931;52.098;21.006;2024-02-16T06:03:59;4.22;76.48
68128;SHT30;54931;52.098;21.006;2024-02-16T06:06:46;4.21;76.40
68128;SHT30;54931;52.098;21.006;2024-02-16T06:09:34;4.22;76.52
68128;SHT30;54931;52.098;21.006;2024-02-16T06:12:21;4.24;76.49
68128;SHT30;54931;52.098;21.006;2024-02-16T06:15:09;4.28;76.35
68128;SHT30;54931;52.098;21.006;2024-02-16T06:17:59;4.30;76.33
68128;SHT30;54931;52.098;21.006;2024-02-16T06:20:48;4.38;76.17
68128;SHT30;54931;52.098;21.006;2024-02-16T06:23:35;4.43;75.95
68128;SHT30;54931;52.098;21.006;2024-02-16T06:26:22;4.50;75.69
68128;SHT30;54931;52.098;21.006;2024-02-16T06:29:10;4.56;75.41
68128;SHT30;54931;52.098;21.006;2024-02-16T06:31:57;4.60;75.37
68128;SHT30;54931;52.098;21.006;2024-02-16T06:34:45;4.64;75.29
68128;SHT30;54931;52.098;21.006;2024-02-16T06:37:32;4.68;75.19
68128;SHT30;54931;52.098;21.006;2024-02-16T06:40:20;4.72;75.03
68128;SHT30;54931;52.098;21.006;2024-02-16T06:43:08;4.78;74.77
68128;SHT30;54931;52.098;21.006;2024-02-16T06:45:55;4.86;74.54
68128;SHT30;54931;52.098;21.006;2024-02-16T06:48:43;4.93;74.06
68128;SHT30;54931;52.098;21.006;2024-02-16T06:51:31;5.05;73.78
68128;SHT30;54931;52.098;21.006;2024-02-16T06:54:19;5.14;73.48
68128;SHT30;54931;52.098;21.006;2024-02-16T06:57:07;5.24;73.20
68128;SHT30;54931;52.098;21.006;2024-02-16T06:59:54;5.36;73.05
68128;SHT30;54931;52.098;21.006;2024-02-16T07:02:44;5.48;72.66
68128;SHT30;54931;52.098;21.006;2024-02-16T07:05:31;5.70;71.93
68128;SHT30;54931;52.098;21.006;2024-02-16T07:08:19;6.17;70.40
68128;SHT30;54931;52.098;21.006;2024-02-16T07:11:07;6.51;69.49
68128;SHT30;54931;52.098;21.006;2024-02-16T07:13:55;6.69;68.33
68128;SHT30;54931;52.098;21.006;2024-02-16T07:16:42;6.82;67.68
68128;SHT30;54931;52.098;21.006;2024-02-16T07:19:29;6.94;67.04
68128;SHT30;54931;52.098;21.006;2024-02-16T07:22:17;7.05;67.03
68128;SHT30;54931;52.098;21.006;2024-02-16T07:25:05;7.04;67.11
68128;SHT30;54931;52.098;21.006;2024-02-16T07:27:55;7.29;66.52
68128;SHT30;54931;52.098;21.006;2024-02-16T07:30:43;7.46;65.44
68128;SHT30;54931;52.098;21.006;2024-02-16T07:33:31;7.68;64.92
68128;SHT30;54931;52.098;21.006;2024-02-16T07:36:18;7.86;64.38
68128;SHT30;54931;52.098;21.006;2024-02-16T07:39:06;7.90;63.96
68128;SHT30;54931;52.098;21.006;2024-02-16T07:41:53;7.86;63.47
68128;SHT30;54931;52.098;21.006;2024-02-16T07:44:41;8.14;63.69
68128;SHT30;54931;52.098;21.006;2024-02-16T07:47:29;8.54;62.65
68128;SHT30;54931;52.098;21.006;2024-02-16T07:50:20;8.86;61.19
68128;SHT30;54931;52.098;21.006;2024-02-16T07:53:08;9.12;60.62
68128;SHT30;54931;52.098;21.006;2024-02-16T07:55:58;9.41;60.36
68128;SHT30;54931;52.098;21.006;2024-02-16T07:58:45;9.56;58.86
68128;SHT30;54931;52.098;21.006;2024-02-16T08:01:32;9.68;58.36
68128;SHT30;54931;52.098;21.006;2024-02-16T08:04:20;9.82;57.91
68128;SHT30;54931;52.098;21.006;2024-02-16T08:07:07;9.95;57.23
68128;SHT30;54931;52.098;21.006;2024-02-16T08:09:56;10.04;56.64
68128;SHT30;54931;52.098;21.006;2024-02-16T08:12:43;10.19;56.76
68128;SHT30;54931;52.098;21.006;2024-02-16T08:15:30;10.42;56.41
68128;SHT30;54931;52.098;21.006;2024-02-16T08:18:18;10.63;55.79
68128;SHT30;54931;52.098;21.006;2024-02-16T08:21:07;10.67;55.31
68128;SHT30;54931;52.098;21.006;2024-02-16T08:23:55;10.59;54.85
68128;SHT30;54931;52.098;21.006;2024-02-16T08:26:42;10.52;55.29
68128;SHT30;54931;52.098;21.006;2024-02-16T08:29:29;10.62;54.79
68128;SHT30;54931;52.098;21.006;2024-02-16T08:32:17;10.58;54.65
68128;SHT30;54931;52.098;21.006;2024-02-16T08:35:07;10.69;54.80
68128;SHT30;54931;52.098;21.006;2024-02-16T08:37:55;11.00;55.25
68128;SHT30;54931;52.098;21.006;2024-02-16T08:40:42;11.31;53.45
68128;SHT30;54931;52.098;21.006;2024-02-16T08:43:29;11.49;53.11
68128;SHT30;54931;52.098;21.006;2024-02-16T08:46:16;11.64;52.75
68128;SHT30;54931;52.098;21.006;2024-02-16T08:49:04;11.54;52.53
68128;SHT30;54931;52.098;21.006;2024-02-16T08:51:52;11.63;52.50
68128;SHT30;54931;52.098;21.006;2024-02-16T08:54:39;11.66;52.58
68128;SHT30;54931;52.098;21.006;2024-02-16T08:57:27;11.77;52.56
68128;SHT30;54931;52.098;21.006;2024-02-16T09:00:14;11.97;51.70
68128;SHT30;54931;52.098;21.006;2024-02-16T09:03:03;12.20;51.35
68128;SHT30;54931;52.098;21.006;2024-02-16T09:05:53;12.39;50.98
68128;SHT30;54931;52.098;21.006;2024-02-16T09:08:40;12.33;50.63
68128;SHT30;54931;52.098;21.006;2024-02-16T09:11:27;12.53;51.14
68128;SHT30;54931;52.098;21.006;2024-02-16T09:14:15;12.66;50.06
68128;SHT30;54931;52.098;21.006;2024-02-16T09:17:02;12.67;49.73
68128;SHT30;54931;52.098;21.006;2024-02-16T09:19:49;12.61;49.77
68128;SHT30;54931;52.098;21.006;2024-02-16T09:22:40;12.53;50.03
68128;SHT30;54931;52.098;21.006;2024-02-16T09:25:28;12.63;50.06
68128;SHT30;54931;52.098;21.006;2024-02-16T09:28:15;12.88;50.05
68128;SHT30;54931;52.098;21.006;2024-02-16T09:31:03;13.08;49.26
68128;SHT30;54931;52.098;21.006;2024-02-16T09:33:50;13.23;49.64
68128;SHT30;54931;52.098;21.006;2024-02-16T09:36:38;13.49;49.09
68128;SHT30;54931;52.098;21.006;2024-02-16T09:39:26;13.39;49.44
68128;SHT30;54931;52.098;21.006;2024-02-16T09:42:14;13.21;49.76
68128;SHT30;54931;52.098;21.006;2024-02-16T09:45:04;13.05;50.40
68128;SHT30;54931;52.098;21.006;2024-02-16T09:47:59;13.09;50.54
68128;SHT30;54931;52.098;21.006;2024-02-16T09:50:47;13.18;50.70
68128;SHT30;54931;52.098;21.006;2024-02-16T09:53:37;13.25;50.47
68128;SHT30;54931;52.098;21.006;2024-02-16T09:56:24;13.15;50.32
68128;SHT30;54931;52.098;21.006;2024-02-16T09:59:11;13.08;50.80
68128;SHT30;54931;52.098;21.006;2024-02-16T10:02:03;12.93;50.91
68128;SHT30;54931;52.098;21.006;2024-02-16T10:04:54;13.16;51.54
68128;SHT30;54931;52.098;21.006;2024-02-16T10:07:41;13.46;50.70
68128;SHT30;54931;52.098;21.006;2024-02-16T10:10:29;13.55;50.30
68128;SHT30;54931;52.098;21.006;2024-02-16T10:13:24;13.64;50.01
68128;SHT30;54931;52.098;21.006;2024-02-16T10:16:11;13.60;50.49
68128;SHT30;54931;52.098;21.006;2024-02-16T10:19:05;13.63;50.21
68128;SHT30;54931;52.098;21.006;2024-02-16T10:21:53;13.70;50.59
68128;SHT30;54931;52.098;21.006;2024-02-16T10:24:41;13.54;50.94
68128;SHT30;54931;52.098;21.006;2024-02-16T10:27:29;13.64;52.04
68128;SHT30;54931;52.098;21.006;2024-02-16T10:30:18;13.59;51.31
68128;SHT30;54931;52.098;21.006;2024-02-16T10:33:06;13.57;51.77
68128;SHT30;54931;52.098;21.006;2024-02-16T10:35:56;13.44;52.03
68128;SHT30;54931;52.098;21.006;2024-02-16T10:38:45;13.37;52.46
68128;SHT30;54931;52.098;21.006;2024-02-16T10:41:35;13.29;52.91
68128;SHT30;54931;52.098;21.006;2024-02-16T10:44:25;13.11;53.51
68128;SHT30;54931;52.098;21.006;2024-02-16T10:47:14;13.08;53.48
68128;SHT30;54931;52.098;21.006;2024-02-16T10:50:02;12.96;53.73
68128;SHT30;54931;52.098;21.006;2024-02-16T10:52:51;12.93;54.06
68128;SHT30;54931;52.098;21.006;2024-02-16T10:55:43;12.87;54.38
68128;SHT30;54931;52.098;21.006;2024-02-16T10:58:31;12.96;54.46
68128;SHT30;54931;52.098;21.006;2024-02-16T11:01:20;13.22;54.42
68128;SHT30;54931;52.098;21.006;2024-02-16T11:04:10;13.36;53.55
68128;SHT30;54931;52.098;21.006;2024-02-16T11:06:59;13.38;53.49
68128;SHT30;54931;52.098;21.006;2024-02-16T11:09:47;13.50;53.56
68128;SHT30;54931;52.098;21.006;2024-02-16T11:12:35;13.61;53.32
68128;SHT30;54931;52.098;21.006;2024-02-16T11:15:30;13.59;53.13
68128;SHT30;54931;52.098;21.006;2024-02-16T11:18:19;13.56;53.67
68128;SHT30;54931;52.098;21.006;2024-02-16T11:21:06;13.59;53.91
68128;SHT30;54931;52.098;21.006;2024-02-16T11:24:03;13.51;54.20
68128;SHT30;54931;52.098;21.006;2024-02-16T11:26:54;13.55;54.51
68128;SHT30;54931;52.098;21.006;2024-02-16T11:29:41;13.70;54.11
68128;SHT30;54931;52.098;21.006;2024-02-16T11:32:32;13.79;53.71
68128;SHT30;54931;52.098;21.006;2024-02-16T11:35:21;13.80;54.10
68128;SHT30;54931;52.098;21.006;2024-02-16T11:38:08;14.02;54.44
68128;SHT30;54931;52.098;21.006;2024-02-16T11:40:59;14.14;53.90
68128;SHT30;54931;52.098;21.006;2024-02-16T11:43:47;14.22;53.37
68128;SHT30;54931;52.098;21.006;2024-02-16T11:46:35;14.29;53.61
68128;SHT30;54931;52.098;21.006;2024-02-16T11:49:22;14.34;53.39
68128;SHT30;54931;52.098;21.006;2024-02-16T11:52:10;14.33;53.33
68128;SHT30;54931;52.098;21.006;2024-02-16T11:54:57;14.27;53.75
68128;SHT30;54931;52.098;21.006;2024-02-16T11:57:47;14.26;53.95
68128;SHT30;54931;52.098;21.006;2024-02-16T12:00:37;14.28;54.28
68128;SHT30;54931;52.098;21.006;2024-02-16T12:03:27;14.29;54.11
68128;SHT30;54931;52.098;21.006;2024-02-16T12:06:21;14.22;54.51
68128;SHT30;54931;52.098;21.006;2024-02-16T12:09:08;14.13;54.86
68128;SHT30;54931;52.098;21.006;2024-02-16T12:11:56;14.18;55.02
68128;SHT30;54931;52.098;21.006;2024-02-16T12:14:44;14.27;54.87
68128;SHT30;54931;52.098;21.006;2024-02-16T12:17:32;14.34;54.96
68128;SHT30;54931;52.098;21.006;2024-02-16T12:20:19;14.49;54.80
68128;SHT30;54931;52.098;21.006;2024-02-16T12:23:10;14.62;54.33
68128;SHT30;54931;52.098;21.006;2024-02-16T12:26:00;14.74;53.84
68128;SHT30;54931;52.098;21.006;2024-02-16T12:28:47;14.79;54.15
68128;SHT30;54931;52.098;21.006;2024-02-16T12:31:35;14.83;53.85
68128;SHT30;54931;52.098;21.006;2024-02-16T12:34:24;14.74;53.92
68128;SHT30;54931;52.098;21.006;2024-02-16T12:37:12;14.68;54.37
68128;SHT30;54931;52.098;21.006;2024-02-16T12:40:00;14.70;53.98
68128;SHT30;54931;52.098;21.006;2024-02-16T12:42:48;14.70;54.03
68128;SHT30;54931;52.098;21.006;2024-02-16T12:45:35;14.76;53.94
68128;SHT30;54931;52.098;21.006;2024-02-16T12:48:23;14.91;53.54
68128;SHT30;54931;52.098;21.006;2024-02-16T12:51:10;15.02;52.87
68128;SHT30;54931;52.098;21.006;2024-02-16T12:53:58;15.06;52.98
68128;SHT30;54931;52.098;21.006;2024-02-16T12:56:47;15.09;52.35
68128;SHT30;54931;52.098;21.006;2024-02-16T12:59:36;14.93;52.44
68128;SHT30;54931;52.098;21.006;2024-02-16T13:02:24;14.84;53.07
68128;SHT30;54931;52.098;21.006;2024-02-16T13:05:11;14.70;53.15
68128;SHT30;54931;52.098;21.006;2024-02-16T13:07:58;14.66;53.46
68128;SHT30;54931;52.098;21.006;2024-02-16T13:10:45;14.64;53.75
68128;SHT30;54931;52.098;21.006;2024-02-16T13:13:33;14.49;53.77
68128;SHT30;54931;52.098;21.006;2024-02-16T13:16:20;14.38;54.32
68128;SHT30;54931;52.098;21.006;2024-02-16T13:19:08;14.26;54.46
68128;SHT30;54931;52.098;21.006;2024-02-16T13:21:55;14.23;54.80
68128;SHT30;54931;52.098;21.006;2024-02-16T13:24:43;14.20;54.82
68128;SHT30;54931;52.098;21.006;2024-02-16T13:27:30;14.18;55.14
68128;SHT30;54931;52.098;21.006;2024-02-16T13:30:18;14.11;55.23
68128;SHT30;54931;52.098;21.006;2024-02-16T13:33:06;14.13;55.45
68128;SHT30;54931;52.098;21.006;2024-02-16T13:35:56;14.17;55.45
68128;SHT30;54931;52.098;21.006;2024-02-16T13:38:43;14.13;55.36
68128;SHT30;54931;52.098;21.006;2024-02-16T13:41:30;14.11;55.61
68128;SHT30;54931;52.098;21.006;2024-02-16T13:44:18;14.15;55.52
68128;SHT30;54931;52.098;21.006;2024-02-16T13:47:06;14.08;55.58
68128;SHT30;54931;52.098;21.006;2024-02-16T13:49:53;14.05;55.51
68128;SHT30;54931;52.098;21.006;2024-02-16T13:52:43;14.05;55.31
68128;SHT30;54931;52.098;21.006;2024-02-16T13:55:30;14.09;55.31
68128;SHT30;54931;52.098;21.006;2024-02-16T13:58:18;14.11;55.34
68128;SHT30;54931;52.098;21.006;2024-02-16T14:01:05;14.01;55.45
68128;SHT30;54931;52.098;21.006;2024-02-16T14:03:53;14.00;55.44
68128;SHT30;54931;52.098;21.006;2024-02-16T14:06:41;13.88;55.44
68128;SHT30;54931;52.098;21.006;2024-02-16T14:09:29;13.95;55.48
68128;SHT30;54931;52.098;21.006;2024-02-16T14:12:17;13.88;55.48
68128;SHT30;54931;52.098;21.006;2024-02-16T14:15:04;13.75;55.72
68128;SHT30;54931;52.098;21.006;2024-02-16T14:17:52;13.60;56.25
68128;SHT30;54931;52.098;21.006;2024-02-16T14:20:39;13.56;56.38
68128;SHT30;54931;52.098;21.006;2024-02-16T14:23:27;13.54;56.17
68128;SHT30;54931;52.098;21.006;2024-02-16T14:26:14;13.41;56.40
68128;SHT30;54931;52.098;21.006;2024-02-16T14:29:01;13.28;56.89
68128;SHT30;54931;52.098;21.006;2024-02-16T14:31:49;13.10;57.23
68128;SHT30;54931;52.098;21.006;2024-02-16T14:34:36;13.02;57.53
68128;SHT30;54931;52.098;21.006;2024-02-16T14:37:24;12.90;57.57
68128;SHT30;54931;52.098;21.006;2024-02-16T14:40:11;12.82;57.74
68128;SHT30;54931;52.098;21.006;2024-02-16T14:42:59;12.79;58.04
68128;SHT30;54931;52.098;21.006;2024-02-16T14:45:47;12.84;57.67
68128;SHT30;54931;52.098;21.006;2024-02-16T14:48:35;12.89;57.56
68128;SHT30;54931;52.098;21.006;2024-02-16T14:51:23;12.96;57.25
68128;SHT30;54931;52.098;21.006;2024-02-16T14:54:10;12.85;57.57
68128;SHT30;54931;52.098;21.006;2024-02-16T14:56:58;12.68;57.78
68128;SHT30;54931;52.098;21.006;2024-02-16T14:59:45;12.55;58.17
68128;SHT30;54931;52.098;21.006;2024-02-16T15:02:33;12.43;58.52
68128;SHT30;54931;52.098;21.006;2024-02-16T15:05:20;12.34;58.79
68128;SHT30;54931;52.098;21.006;2024-02-16T15:08:10;12.24;58.99
68128;SHT30;54931;52.098;21.006;2024-02-16T15:10:57;12.14;59.27
68128;SHT30;54931;52.098;21.006;2024-02-16T15:13:45;12.07;59.49
68128;SHT30;54931;52.098;21.006;2024-02-16T15:16:32;11.99;59.63
68128;SHT30;54931;52.098;21.006;2024-02-16T15:19:19;11.92;59.90
68128;SHT30;54931;52.098;21.006;2024-02-16T15:22:07;11.85;60.19
68128;SHT30;54931;52.098;21.006;2024-02-16T15:24:55;11.75;60.53
68128;SHT30;54931;52.098;21.006;2024-02-16T15:27:42;11.66;60.74
68128;SHT30;54931;52.098;21.006;2024-02-16T15:30:30;11.58;60.99
68128;SHT30;54931;52.098;21.006;2024-02-16T15:33:18;11.49;61.31
68128;SHT30;54931;52.098;21.006;2024-02-16T15:36:05;11.40;61.60
68128;SHT30;54931;52.098;21.006;2024-02-16T15:38:55;11.31;61.86
68128;SHT30;54931;52.098;21.006;2024-02-16T15:41:43;11.26;62.02
68128;SHT30;54931;52.098;21.006;2024-02-16T15:44:30;11.19;62.28
68128;SHT30;54931;52.098;21.006;2024-02-16T15:47:17;11.11;62.50
68128;SHT30;54931;52.098;21.006;2024-02-16T15:50:05;11.02;62.78
68128;SHT30;54931;52.098;21.006;2024-02-16T15:52:53;10.91;63.19
68128;SHT30;54931;52.098;21.006;2024-02-16T15:55:43;10.84;63.36
68128;SHT30;54931;52.098;21.006;2024-02-16T15:58:30;10.77;63.52
68128;SHT30;54931;52.098;21.006;2024-02-16T16:01:18;10.75;63.62
68128;SHT30;54931;52.098;21.006;2024-02-16T16:04:21;10.71;63.71
68128;SHT30;54931;52.098;21.006;2024-02-16T16:07:20;10.66;63.85
68128;SHT30;54931;52.098;21.006;2024-02-16T16:10:07;10.63;63.91
68128;SHT30;54931;52.098;21.006;2024-02-16T16:12:55;10.60;64.02
68128;SHT30;54931;52.098;21.006;2024-02-16T16:15:44;10.53;64.18
68128;SHT30;54931;52.098;21.006;2024-02-16T16:18:31;10.52;64.16
68128;SHT30;54931;52.098;21.006;2024-02-16T16:21:22;10.53;64.18
68128;SHT30;54931;52.098;21.006;2024-02-16T16:24:10;10.49;64.25
68128;SHT30;54931;52.098;21.006;2024-02-16T16:27:00;10.44;64.39
68128;SHT30;54931;52.098;21.006;2024-02-16T16:29:47;10.38;64.60
68128;SHT30;54931;52.098;21.006;2024-02-16T16:32:35;10.30;64.83
68128;SHT30;54931;52.098;21.006;2024-02-16T16:35:23;10.22;65.10
68128;SHT30;54931;52.098;21.006;2024-02-16T16:38:10;10.15;65.37
68128;SHT30;54931;52.098;21.006;2024-02-16T16:40:58;10.13;65.46
68128;SHT30;54931;52.098;21.006;2024-02-16T16:43:45;10.07;65.64
68128;SHT30;54931;52.098;21.006;2024-02-16T16:46:33;10.02;65.78
68128;SHT30;54931;52.098;21.006;2024-02-16T16:49:20;9.99;65.85
68128;SHT30;54931;52.098;21.006;2024-02-16T16:52:08;9.98;65.95
68128;SHT30;54931;52.098;21.006;2024-02-16T16:54:56;9.93;66.03
68128;SHT30;54931;52.098;21.006;2024-02-16T16:57:43;9.91;66.10
68128;SHT30;54931;52.098;21.006;2024-02-16T17:00:30;9.93;66.01
68128;SHT30;54931;52.098;21.006;2024-02-16T17:03:18;9.90;66.10
68128;SHT30;54931;52.098;21.006;2024-02-16T17:06:07;9.84;66.22
68128;SHT30;54931;52.098;21.006;2024-02-16T17:08:55;9.81;66.47
68128;SHT30;54931;52.098;21.006;2024-02-16T17:11:43;9.82;66.57
68128;SHT30;54931;52.098;21.006;2024-02-16T17:14:31;9.82;66.62
68128;SHT30;54931;52.098;21.006;2024-02-16T17:17:19;9.81;66.72
68128;SHT30;54931;52.098;21.006;2024-02-16T17:20:07;9.77;66.81
68128;SHT30;54931;52.098;21.006;2024-02-16T17:22:54;9.76;66.91
68128;SHT30;54931;52.098;21.006;2024-02-16T17:25:42;9.75;66.96
68128;SHT30;54931;52.098;21.006;2024-02-16T17:28:29;9.71;67.10
68128;SHT30;54931;52.098;21.006;2024-02-16T17:31:16;9.66;67.34
68128;SHT30;54931;52.098;21.006;2024-02-16T17:34:03;9.66;67.40